Time;durP1;ratioP1;P1;durP2;ratioP2;P2;SDS_P1;SDS_P2;PMS_P1;PMS_P2;Temp;Humidity;BMP_temperature;BMP_pressure;BME280_temperature;BME280_humidity;BME280_pressure;Samples;Min_cycle;Max_cycle;Signal;HPM_P1;HPM_P2
2022/06/27 00:02:26;;;;;;;3.80;3.60;;;;;;;;;;5061947;28;20735;-73
2022/06/27 00:05:13;;;;;;;4.00;3.80;;;;;;;;;;5056614;28;20609;-73
2022/06/27 00:08:02;;;;;;;4.00;3.80;;;;;;;;;;5058937;28;20241;-73
2022/06/27 00:10:49;;;;;;;3.50;3.30;;;;;;;;;;5051685;28;20686;-73
2022/06/27 00:13:36;;;;;;;3.83;3.63;;;;;;;;;;5057380;28;20201;-73
2022/06/27 00:16:23;;;;;;;3.80;3.60;;;;;;;;;;5061173;28;20286;-73
2022/06/27 00:19:09;;;;;;;4.22;4.03;;;;;;;;;;5064005;28;20223;-73
2022/06/27 00:21:57;;;;;;;3.83;3.63;;;;;;;;;;5058795;28;20659;-73
2022/06/27 00:24:45;;;;;;;3.75;3.58;;;;;;;;;;5060952;28;20208;-73
2022/06/27 00:27:32;;;;;;;3.72;3.53;;;;;;;;;;5054887;28;20207;-73
2022/06/27 00:30:19;;;;;;;4.03;3.50;;;;;;;;;;5063614;28;20218;-73
2022/06/27 00:33:06;;;;;;;3.88;3.70;;;;;;;;;;5053845;28;20193;-73
2022/06/27 00:35:53;;;;;;;3.60;3.50;;;;;;;;;;5058001;28;20210;-73
2022/06/27 00:38:40;;;;;;;3.90;3.70;;;;;;;;;;5056779;28;20223;-73
2022/06/27 00:41:29;;;;;;;4.00;3.70;;;;;;;;;;5058543;28;20284;-73
2022/06/27 00:44:30;;;;;;;4.00;3.80;;;;;;;;;;5066775;28;20207;-73
2022/06/27 00:47:17;;;;;;;3.75;3.55;;;;;;;;;;5064101;28;20198;-73
2022/06/27 00:50:05;;;;;;;3.95;3.75;;;;;;;;;;5061400;28;20206;-73
2022/06/27 00:52:52;;;;;;;3.88;3.67;;;;;;;;;;5064712;28;20234;-73
2022/06/27 00:55:40;;;;;;;4.10;3.90;;;;;;;;;;5060062;28;20210;-73
2022/06/27 00:58:29;;;;;;;3.92;3.72;;;;;;;;;;5059141;28;20314;-73
2022/06/27 01:01:15;;;;;;;3.95;3.67;;;;;;;;;;5061704;28;20207;-71
2022/06/27 01:04:02;;;;;;;4.15;3.95;;;;;;;;;;5062448;28;20238;-71
2022/06/27 01:06:50;;;;;;;3.78;3.67;;;;;;;;;;5060075;28;20235;-69
2022/06/27 01:09:38;;;;;;;4.03;3.83;;;;;;;;;;5063770;28;20202;-70
2022/06/27 01:12:25;;;;;;;4.28;4.07;;;;;;;;;;5060173;28;20215;-70
2022/06/27 01:15:14;;;;;;;4.10;3.90;;;;;;;;;;5064607;28;20616;-70
2022/06/27 01:18:01;;;;;;;4.30;4.00;;;;;;;;;;5054002;28;20284;-71
2022/06/27 01:20:48;;;;;;;4.10;3.90;;;;;;;;;;5065170;28;20213;-70
2022/06/27 01:23:37;;;;;;;4.05;3.85;;;;;;;;;;5056266;28;20203;-70
2022/06/27 01:26:24;;;;;;;3.67;3.58;;;;;;;;;;5064033;28;20590;-69
2022/06/27 01:29:12;;;;;;;4.22;4.03;;;;;;;;;;5060087;28;20220;-70
2022/06/27 01:32:00;;;;;;;4.13;3.92;;;;;;;;;;5061005;28;20199;-70
2022/06/27 01:34:47;;;;;;;3.80;3.60;;;;;;;;;;5058932;28;20671;-70
2022/06/27 01:37:34;;;;;;;4.00;3.80;;;;;;;;;;5063873;28;20212;-70
2022/06/27 01:40:22;;;;;;;3.85;3.63;;;;;;;;;;5058952;28;20731;-70
2022/06/27 01:43:09;;;;;;;4.28;4.07;;;;;;;;;;5052262;28;20206;-70
2022/06/27 01:45:57;;;;;;;4.00;3.80;;;;;;;;;;5060289;28;20215;-70
2022/06/27 01:48:44;;;;;;;4.40;4.20;;;;;;;;;;5059473;28;20574;-70
2022/06/27 01:51:31;;;;;;;4.10;3.90;;;;;;;;;;5060735;28;20431;-71
2022/06/27 01:54:21;;;;;;;4.03;3.83;;;;;;;;;;5059856;28;20288;-70
2022/06/27 01:57:10;;;;;;;4.03;3.80;;;;;;;;;;5059275;28;20212;-70
2022/06/27 01:59:58;;;;;;;4.13;3.83;;;;;;;;;;5061869;28;20211;-69
2022/06/27 02:02:45;;;;;;;4.00;3.80;;;;;;;;;;5057668;28;20246;-70
2022/06/27 02:05:33;;;;;;;4.03;3.83;;;;;;;;;;5062042;28;20216;-70
2022/06/27 02:08:21;;;;;;;4.20;4.00;;;;;;;;;;5062608;28;20228;-70
2022/06/27 02:11:08;;;;;;;4.05;3.80;;;;;;;;;;5058484;28;20218;-70
2022/06/27 02:13:57;;;;;;;4.20;4.00;;;;;;;;;;5064885;28;20308;-70
2022/06/27 02:16:45;;;;;;;3.95;3.75;;;;;;;;;;5063193;28;20211;-70
2022/06/27 02:19:32;;;;;;;4.40;4.20;;;;;;;;;;5061164;28;20227;-70
2022/06/27 02:22:19;;;;;;;3.97;3.78;;;;;;;;;;5061902;28;20701;-70
2022/06/27 02:25:07;;;;;;;3.88;3.67;;;;;;;;;;5059169;28;20207;-71
2022/06/27 02:27:56;;;;;;;3.85;3.60;;;;;;;;;;5064271;28;20682;-70
2022/06/27 02:30:46;;;;;;;3.78;3.60;;;;;;;;;;5054126;28;20226;-71
2022/06/27 02:33:34;;;;;;;4.25;4.05;;;;;;;;;;5063237;28;20265;-70
2022/06/27 02:36:27;;;;;;;4.22;4.03;;;;;;;;;;5059493;28;20210;-70
2022/06/27 02:39:19;;;;;;;4.28;4.07;;;;;;;;;;5061993;28;20356;-70
2022/06/27 02:42:09;;;;;;;4.43;4.22;;;;;;;;;;5057124;28;20214;-70
2022/06/27 02:44:57;;;;;;;3.92;3.72;;;;;;;;;;5059953;28;20205;-70
2022/06/27 02:47:48;;;;;;;3.85;3.70;;;;;;;;;;5058339;28;21085;-70
2022/06/27 02:50:39;;;;;;;4.07;3.95;;;;;;;;;;5055138;28;20207;-70
2022/06/27 02:53:29;;;;;;;4.20;4.00;;;;;;;;;;5063000;28;20218;-71
2022/06/27 02:56:23;;;;;;;4.07;3.88;;;;;;;;;;5059700;28;20695;-70
2022/06/27 02:59:17;;;;;;;4.35;4.15;;;;;;;;;;5059317;28;20223;-70
2022/06/27 03:02:08;;;;;;;4.22;4.03;;;;;;;;;;5059362;28;20356;-70
2022/06/27 03:04:57;;;;;;;4.60;4.40;;;;;;;;;;5060963;28;20349;-70
2022/06/27 03:07:45;;;;;;;3.90;3.80;;;;;;;;;;5054416;28;20233;-70
2022/06/27 03:10:32;;;;;;;4.13;3.92;;;;;;;;;;5058129;28;20199;-70
2022/06/27 03:13:21;;;;;;;4.00;3.80;;;;;;;;;;5058331;28;20604;-70
2022/06/27 03:16:08;;;;;;;4.43;4.22;;;;;;;;;;5060919;28;20212;-70
2022/06/27 03:18:57;;;;;;;4.25;4.05;;;;;;;;;;5059765;28;20269;-70
2022/06/27 03:21:46;;;;;;;4.30;4.05;;;;;;;;;;5053301;28;20204;-70
2022/06/27 03:24:33;;;;;;;4.03;3.83;;;;;;;;;;5057712;28;20204;-70
2022/06/27 03:27:20;;;;;;;4.35;4.15;;;;;;;;;;5053471;28;20206;-70
2022/06/27 03:30:08;;;;;;;4.13;3.92;;;;;;;;;;5054345;28;20248;-70
2022/06/27 03:32:55;;;;;;;4.05;3.90;;;;;;;;;;5056794;28;20284;-70
2022/06/27 03:35:44;;;;;;;4.10;3.90;;;;;;;;;;5055627;28;20215;-70
2022/06/27 03:38:34;;;;;;;4.07;3.90;;;;;;;;;;5061936;28;20572;-71
2022/06/27 03:41:21;;;;;;;3.83;3.70;;;;;;;;;;5053068;28;20573;-70
2022/06/27 03:44:11;;;;;;;4.43;4.20;;;;;;;;;;5058334;28;20207;-69
2022/06/27 03:46:58;;;;;;;4.35;4.15;;;;;;;;;;5053593;28;20357;-70
2022/06/27 03:52:58;;;;;;;4.10;3.95;;;;;;;;;;5034977;28;20216;-70
2022/06/27 03:55:46;;;;;;;3.80;3.70;;;;;;;;;;5052455;28;20211;-70
2022/06/27 03:58:33;;;;;;;4.30;4.10;;;;;;;;;;5060427;28;20235;-70
2022/06/27 04:01:20;;;;;;;4.13;3.92;;;;;;;;;;5060713;28;20726;-70
2022/06/27 04:04:07;;;;;;;3.60;3.50;;;;;;;;;;5060738;28;20216;-70
2022/06/27 04:06:54;;;;;;;4.13;3.92;;;;;;;;;;5050536;28;20604;-70
2022/06/27 04:09:41;;;;;;;4.25;4.05;;;;;;;;;;5057824;28;20260;-70
2022/06/27 04:12:29;;;;;;;4.20;4.00;;;;;;;;;;5056237;28;20212;-70
2022/06/27 04:15:16;;;;;;;3.85;3.65;;;;;;;;;;5061023;28;20586;-70
2022/06/27 04:18:04;;;;;;;4.05;3.85;;;;;;;;;;5063818;28;20211;-70
2022/06/27 04:20:51;;;;;;;4.15;3.95;;;;;;;;;;5063517;28;20235;-70
2022/06/27 04:23:40;;;;;;;4.30;4.10;;;;;;;;;;5061477;28;20220;-70
2022/06/27 04:26:28;;;;;;;4.25;4.05;;;;;;;;;;5054858;28;20207;-70
2022/06/27 04:29:17;;;;;;;4.13;3.95;;;;;;;;;;5062795;28;20209;-70
2022/06/27 04:32:07;;;;;;;4.20;4.00;;;;;;;;;;5059593;28;20206;-69
2022/06/27 04:34:54;;;;;;;3.78;3.65;;;;;;;;;;5062618;28;20249;-69
2022/06/27 04:37:43;;;;;;;4.05;3.85;;;;;;;;;;5060142;28;20215;-70
2022/06/27 04:40:32;;;;;;;4.28;4.07;;;;;;;;;;5065801;28;20231;-69
2022/06/27 04:43:19;;;;;;;4.35;4.15;;;;;;;;;;5062558;28;20788;-70
2022/06/27 04:46:08;;;;;;;4.28;3.97;;;;;;;;;;5055668;28;20208;-70
2022/06/27 04:48:55;;;;;;;4.28;4.07;;;;;;;;;;5060367;28;20199;-70
2022/06/27 04:51:43;;;;;;;4.35;4.15;;;;;;;;;;5059822;28;20199;-70
2022/06/27 04:54:30;;;;;;;4.10;3.80;;;;;;;;;;5064047;28;20426;-69
2022/06/27 04:57:17;;;;;;;4.20;4.00;;;;;;;;;;5061998;28;20210;-70
2022/06/27 05:00:07;;;;;;;4.22;4.03;;;;;;;;;;5063485;28;20219;-70
2022/06/27 05:02:55;;;;;;;3.78;3.60;;;;;;;;;;5059096;28;20319;-69
2022/06/27 05:05:42;;;;;;;4.30;4.00;;;;;;;;;;5057234;28;20203;-70
2022/06/27 05:08:29;;;;;;;4.20;4.00;;;;;;;;;;5062115;28;20237;-70
2022/06/27 05:11:17;;;;;;;3.88;3.67;;;;;;;;;;5060807;28;20344;-70
2022/06/27 05:14:04;;;;;;;4.10;3.90;;;;;;;;;;5063466;28;20584;-70
2022/06/27 05:16:51;;;;;;;4.53;4.32;;;;;;;;;;5059507;28;20215;-70
2022/06/27 05:19:40;;;;;;;4.20;4.00;;;;;;;;;;5056479;28;20227;-70
2022/06/27 05:22:27;;;;;;;3.95;3.85;;;;;;;;;;5059861;28;20212;-70
2022/06/27 05:25:15;;;;;;;3.92;3.80;;;;;;;;;;5059009;28;20207;-69
2022/06/27 05:28:03;;;;;;;4.00;3.70;;;;;;;;;;5061868;28;20550;-70
2022/06/27 05:30:50;;;;;;;3.83;3.70;;;;;;;;;;5057446;28;20694;-70
2022/06/27 05:33:38;;;;;;;4.03;3.80;;;;;;;;;;5062573;28;20215;-70
2022/06/27 05:36:26;;;;;;;3.60;3.50;;;;;;;;;;5059672;28;20614;-69
2022/06/27 05:39:13;;;;;;;4.03;3.83;;;;;;;;;;5061033;28;20218;-70
2022/06/27 05:42:01;;;;;;;4.10;3.90;;;;;;;;;;5059632;28;20206;-70
2022/06/27 05:44:48;;;;;;;4.00;3.80;;;;;;;;;;5053660;28;20203;-70
2022/06/27 05:47:36;;;;;;;3.63;3.53;;;;;;;;;;5053742;28;20208;-71
2022/06/27 05:50:23;;;;;;;4.20;4.00;;;;;;;;;;5058602;28;20217;-71
2022/06/27 05:53:11;;;;;;;3.47;3.38;;;;;;;;;;5042303;28;20210;-70
2022/06/27 05:55:59;;;;;;;3.92;3.72;;;;;;;;;;5043437;28;20703;-70
2022/06/27 05:58:48;;;;;;;3.92;3.72;;;;;;;;;;5040175;28;20207;-69
2022/06/27 06:01:37;;;;;;;3.35;3.25;;;;;;;;;;5041890;28;20210;-70
2022/06/27 06:04:25;;;;;;;3.80;3.65;;;;;;;;;;5067446;28;20215;-70
2022/06/27 06:07:12;;;;;;;3.65;3.50;;;;;;;;;;5063402;28;20233;-70
2022/06/27 06:10:00;;;;;;;3.75;3.65;;;;;;;;;;5066823;28;20202;-70
2022/06/27 06:12:50;;;;;;;3.95;3.67;;;;;;;;;;5066780;28;20659;-70
2022/06/27 06:15:38;;;;;;;3.38;3.28;;;;;;;;;;5064433;28;20319;-70
2022/06/27 06:18:25;;;;;;;3.97;3.80;;;;;;;;;;5059559;28;20215;-70
2022/06/27 06:21:12;;;;;;;3.70;3.50;;;;;;;;;;5059954;28;20253;-70
2022/06/27 06:23:59;;;;;;;3.60;3.50;;;;;;;;;;5061558;28;20218;-71
2022/06/27 06:26:52;;;;;;;3.72;3.53;;;;;;;;;;5059688;28;20748;-70
2022/06/27 06:29:42;;;;;;;3.70;3.50;;;;;;;;;;5064586;28;20200;-69
2022/06/27 06:32:29;;;;;;;3.40;3.30;;;;;;;;;;5056305;28;20577;-69
2022/06/27 06:35:16;;;;;;;3.35;3.25;;;;;;;;;;5061125;28;20203;-69
2022/06/27 06:38:06;;;;;;;3.80;3.60;;;;;;;;;;5054482;28;20208;-69
2022/06/27 06:40:56;;;;;;;3.40;3.30;;;;;;;;;;5057260;28;20234;-69
2022/06/27 06:43:45;;;;;;;3.67;3.58;;;;;;;;;;5054305;28;20200;-69
2022/06/27 06:46:33;;;;;;;3.88;3.67;;;;;;;;;;5058649;28;20200;-70
2022/06/27 06:49:20;;;;;;;3.67;3.38;;;;;;;;;;5059817;28;20203;-69
2022/06/27 06:52:07;;;;;;;3.70;3.50;;;;;;;;;;5056859;28;20207;-71
2022/06/27 06:54:54;;;;;;;3.50;3.40;;;;;;;;;;5060199;28;20233;-70
2022/06/27 06:57:41;;;;;;;3.47;3.38;;;;;;;;;;5063914;28;20250;-71
2022/06/27 07:00:30;;;;;;;3.60;3.40;;;;;;;;;;5058443;28;20227;-70
2022/06/27 07:03:18;;;;;;;3.40;3.20;;;;;;;;;;5058020;28;20311;-69
2022/06/27 07:06:05;;;;;;;3.40;3.30;;;;;;;;;;5061653;28;20211;-70
2022/06/27 07:08:53;;;;;;;3.40;3.30;;;;;;;;;;5059638;28;20624;-71
2022/06/27 07:11:40;;;;;;;3.20;3.10;;;;;;;;;;5053768;28;20247;-70
2022/06/27 07:14:27;;;;;;;3.50;3.30;;;;;;;;;;5061248;28;20211;-71
2022/06/27 07:17:16;;;;;;;3.20;3.10;;;;;;;;;;5057496;28;20210;-70
2022/06/27 07:20:04;;;;;;;3.28;3.17;;;;;;;;;;5058154;28;20303;-70
2022/06/27 07:22:51;;;;;;;3.30;3.20;;;;;;;;;;5063112;28;20218;-70
2022/06/27 07:25:38;;;;;;;2.90;2.80;;;;;;;;;;5059450;28;20212;-69
2022/06/27 07:28:29;;;;;;;3.25;3.15;;;;;;;;;;5056491;28;20258;-70
2022/06/27 07:31:17;;;;;;;3.30;3.20;;;;;;;;;;5063093;28;20203;-69
2022/06/27 07:34:08;;;;;;;3.33;3.22;;;;;;;;;;5059876;28;20672;-71
2022/06/27 07:36:56;;;;;;;3.50;3.35;;;;;;;;;;5059021;28;20287;-69
2022/06/27 07:39:43;;;;;;;3.08;2.97;;;;;;;;;;5061102;28;20218;-70
2022/06/27 07:42:31;;;;;;;3.08;2.97;;;;;;;;;;5059166;28;20215;-69
2022/06/27 07:45:20;;;;;;;3.10;3.00;;;;;;;;;;5054825;28;20635;-69
2022/06/27 07:48:07;;;;;;;3.30;3.20;;;;;;;;;;5054869;28;20208;-70
2022/06/27 07:50:56;;;;;;;3.13;2.97;;;;;;;;;;5043911;28;20208;-70
2022/06/27 07:53:46;;;;;;;3.13;3.03;;;;;;;;;;5043285;28;20260;-70
2022/06/27 07:56:34;;;;;;;3.10;3.00;;;;;;;;;;5065556;28;20242;-70
2022/06/27 07:59:22;;;;;;;3.00;2.90;;;;;;;;;;5066809;28;20204;-70
2022/06/27 08:02:10;;;;;;;3.22;3.13;;;;;;;;;;5071058;28;20582;-71
2022/06/27 08:04:58;;;;;;;3.00;2.90;;;;;;;;;;5065693;28;20584;-70
2022/06/27 08:07:47;;;;;;;3.20;3.10;;;;;;;;;;5064401;28;20231;-70
2022/06/27 08:10:34;;;;;;;3.08;2.95;;;;;;;;;;5063577;28;20609;-70
2022/06/27 08:13:22;;;;;;;3.05;2.95;;;;;;;;;;5060709;28;20663;-70
2022/06/27 08:16:12;;;;;;;3.42;3.22;;;;;;;;;;5066601;28;20199;-70
2022/06/27 08:19:00;;;;;;;3.08;2.88;;;;;;;;;;5065941;28;20203;-70
2022/06/27 08:21:47;;;;;;;3.20;3.10;;;;;;;;;;5066246;28;20283;-71
2022/06/27 08:24:36;;;;;;;3.10;3.00;;;;;;;;;;5061422;28;20215;-70
2022/06/27 08:27:23;;;;;;;2.92;2.83;;;;;;;;;;5063194;28;20206;-71
2022/06/27 08:30:14;;;;;;;3.10;3.00;;;;;;;;;;5061359;28;20208;-70
2022/06/27 08:33:01;;;;;;;3.10;2.90;;;;;;;;;;5065163;28;20200;-70
2022/06/27 08:35:50;;;;;;;3.05;2.95;;;;;;;;;;5063694;28;20769;-70
2022/06/27 08:38:42;;;;;;;3.03;2.92;;;;;;;;;;5068058;28;20210;-70
2022/06/27 08:41:31;;;;;;;3.30;3.10;;;;;;;;;;5062147;28;20236;-70
2022/06/27 08:44:21;;;;;;;2.97;2.88;;;;;;;;;;5064747;28;20285;-70
2022/06/27 08:47:11;;;;;;;3.22;2.95;;;;;;;;;;5063903;28;20290;-70
2022/06/27 08:49:58;;;;;;;3.03;2.92;;;;;;;;;;5067676;28;20588;-72
2022/06/27 08:52:47;;;;;;;3.10;3.00;;;;;;;;;;5063477;28;20289;-69
2022/06/27 08:55:34;;;;;;;3.10;3.00;;;;;;;;;;5044276;28;20224;-72
2022/06/27 08:58:25;;;;;;;3.10;3.00;;;;;;;;;;5045314;28;20204;-70
2022/06/27 09:01:15;;;;;;;2.95;2.85;;;;;;;;;;5064736;28;20224;-70
2022/06/27 09:04:06;;;;;;;3.10;3.00;;;;;;;;;;5061805;28;20274;-70
2022/06/27 09:06:56;;;;;;;3.20;3.10;;;;;;;;;;5057607;28;20215;-71
2022/06/27 09:09:43;;;;;;;3.15;3.05;;;;;;;;;;5060520;28;20215;-70
2022/06/27 09:12:30;;;;;;;2.88;2.78;;;;;;;;;;5045339;28;20211;-70
2022/06/27 09:15:19;;;;;;;3.15;3.05;;;;;;;;;;5045177;28;20663;-71
2022/06/27 09:18:08;;;;;;;3.00;2.90;;;;;;;;;;5064666;28;20207;-71
2022/06/27 09:20:58;;;;;;;2.90;2.80;;;;;;;;;;5058808;28;20218;-70
2022/06/27 09:23:48;;;;;;;3.30;3.20;;;;;;;;;;5062868;28;20264;-70
2022/06/27 09:26:36;;;;;;;3.15;3.05;;;;;;;;;;5063188;28;20211;-71
2022/06/27 09:29:28;;;;;;;3.20;2.97;;;;;;;;;;5061096;28;20249;-71
2022/06/27 09:32:26;;;;;;;3.30;3.17;;;;;;;;;;5060720;28;20254;-70
2022/06/27 09:35:24;;;;;;;3.38;3.28;;;;;;;;;;5053394;28;20211;-70
2022/06/27 09:38:11;;;;;;;3.33;3.22;;;;;;;;;;5059333;28;20212;-70
2022/06/27 09:40:58;;;;;;;3.30;3.20;;;;;;;;;;5057972;28;20227;-71
2022/06/27 09:43:46;;;;;;;3.33;3.13;;;;;;;;;;5056053;28;20681;-70
2022/06/27 09:46:38;;;;;;;3.35;3.25;;;;;;;;;;5056635;28;20200;-71
2022/06/27 09:49:28;;;;;;;3.35;3.25;;;;;;;;;;5061107;28;20210;-70
2022/06/27 09:52:17;;;;;;;3.17;3.08;;;;;;;;;;5061262;28;20235;-71
2022/06/27 09:55:09;;;;;;;2.70;2.60;;;;;;;;;;5055785;28;20216;-70
2022/06/27 09:57:56;;;;;;;3.28;3.17;;;;;;;;;;5060640;28;20218;-70
2022/06/27 10:00:44;;;;;;;3.28;3.17;;;;;;;;;;5054681;28;20247;-71
2022/06/27 10:03:36;;;;;;;3.05;2.95;;;;;;;;;;5058724;28;20235;-70
2022/06/27 10:06:25;;;;;;;3.40;3.30;;;;;;;;;;5055558;28;20202;-70
2022/06/27 10:09:16;;;;;;;3.10;3.00;;;;;;;;;;5046387;28;20218;-71
2022/06/27 10:12:24;;;;;;;3.30;3.20;;;;;;;;;;5043594;28;20590;-70
2022/06/27 10:15:23;;;;;;;3.05;2.95;;;;;;;;;;5048357;28;20235;-70
2022/06/27 10:18:10;;;;;;;3.22;3.13;;;;;;;;;;5050518;28;20257;-71
2022/06/27 10:20:56;;;;;;;3.08;2.97;;;;;;;;;;5051520;28;20237;-70
2022/06/27 10:23:48;;;;;;;3.30;3.20;;;;;;;;;;5051195;28;20230;-71
2022/06/27 10:26:41;;;;;;;3.10;3.00;;;;;;;;;;5050822;28;20204;-70
2022/06/27 10:29:48;;;;;;;3.10;3.00;;;;;;;;;;5046482;28;20302;-70
2022/06/27 10:32:41;;;;;;;3.30;3.20;;;;;;;;;;5047488;28;20208;-70
2022/06/27 10:35:30;;;;;;;3.10;3.00;;;;;;;;;;5047858;28;20211;-70
2022/06/27 10:38:24;;;;;;;3.00;2.90;;;;;;;;;;5046944;28;20294;-69
2022/06/27 10:41:40;;;;;;;3.20;3.10;;;;;;;;;;5049057;28;20228;-70
2022/06/27 10:44:33;;;;;;;2.95;2.85;;;;;;;;;;5048705;28;20702;-70
2022/06/27 10:47:35;;;;;;;2.90;2.80;;;;;;;;;;5047921;28;20204;-69
2022/06/27 10:50:23;;;;;;;2.95;2.85;;;;;;;;;;5043990;28;20289;-70
2022/06/27 10:53:23;;;;;;;3.10;3.00;;;;;;;;;;5049091;28;20298;-71
2022/06/27 10:56:31;;;;;;;3.25;3.05;;;;;;;;;;5046770;28;20548;-70
2022/06/27 10:59:54;;;;;;;3.22;3.10;;;;;;;;;;5048676;28;20195;-70
2022/06/27 11:02:42;;;;;;;3.00;2.90;;;;;;;;;;5049182;28;20285;-71
2022/06/27 11:05:32;;;;;;;3.10;3.00;;;;;;;;;;5046221;28;20675;-70
2022/06/27 11:08:19;;;;;;;3.00;2.90;;;;;;;;;;5054761;28;20286;-70
2022/06/27 11:11:07;;;;;;;3.17;3.08;;;;;;;;;;5059675;28;20195;-70
2022/06/27 11:13:56;;;;;;;3.20;3.10;;;;;;;;;;5057614;28;20199;-70
2022/06/27 11:16:44;;;;;;;3.03;2.92;;;;;;;;;;5057223;28;20208;-70
2022/06/27 11:22:35;;;;;;;2.97;2.88;;;;;;;;;;5058622;28;20230;-70
2022/06/27 11:25:24;;;;;;;3.03;2.92;;;;;;;;;;5058445;28;20206;-71
2022/06/27 11:34:32;;;;;;;3.10;3.00;;;;;;;;;;5056807;28;20616;-69
2022/06/27 11:37:24;;;;;;;3.10;3.00;;;;;;;;;;5057739;28;20211;-70
2022/06/27 11:40:11;;;;;;;3.10;2.97;;;;;;;;;;5052842;28;20218;-71
2022/06/27 11:42:58;;;;;;;3.33;3.10;;;;;;;;;;5058187;28;20674;-69
2022/06/27 11:45:45;;;;;;;2.97;2.88;;;;;;;;;;5053249;28;20203;-70
2022/06/27 11:48:33;;;;;;;3.00;2.90;;;;;;;;;;5063389;28;20662;-69
2022/06/27 11:51:24;;;;;;;3.30;3.05;;;;;;;;;;5055928;28;20200;-70
2022/06/27 11:54:14;;;;;;;3.10;3.00;;;;;;;;;;5052797;28;20191;-70
2022/06/27 11:57:01;;;;;;;2.80;2.70;;;;;;;;;;5058639;28;20692;-70
2022/06/27 11:59:49;;;;;;;2.80;2.70;;;;;;;;;;5053912;28;20289;-70
2022/06/27 12:02:37;;;;;;;3.15;3.05;;;;;;;;;;5059945;28;20607;-70
2022/06/27 12:05:24;;;;;;;2.92;2.83;;;;;;;;;;5056867;28;20214;-70
2022/06/27 12:08:14;;;;;;;3.03;2.92;;;;;;;;;;5055852;28;20231;-69
2022/06/27 12:11:26;;;;;;;3.20;3.10;;;;;;;;;;5060095;28;20210;-70
2022/06/27 12:14:13;;;;;;;3.30;3.20;;;;;;;;;;5055382;28;20207;-70
2022/06/27 12:17:00;;;;;;;3.20;3.10;;;;;;;;;;5057485;28;20247;-69
2022/06/27 12:19:48;;;;;;;2.78;2.67;;;;;;;;;;5063034;28;20216;-70
2022/06/27 12:22:35;;;;;;;2.90;2.80;;;;;;;;;;5057971;28;20223;-70
2022/06/27 12:25:23;;;;;;;3.15;3.05;;;;;;;;;;5058245;28;20225;-71
2022/06/27 12:28:10;;;;;;;3.47;3.38;;;;;;;;;;5058622;28;20223;-71
2022/06/27 12:30:57;;;;;;;2.90;2.80;;;;;;;;;;5053576;28;20691;-70
2022/06/27 12:33:45;;;;;;;3.15;3.05;;;;;;;;;;5059411;28;20710;-71
2022/06/27 12:36:32;;;;;;;2.78;2.67;;;;;;;;;;5056491;28;20234;-70
2022/06/27 12:39:19;;;;;;;2.92;2.83;;;;;;;;;;5056889;28;20207;-70
2022/06/27 12:42:09;;;;;;;2.67;2.58;;;;;;;;;;5060821;28;20223;-70
2022/06/27 12:44:56;;;;;;;2.90;2.80;;;;;;;;;;5059028;28;20678;-70
2022/06/27 12:47:43;;;;;;;3.00;2.90;;;;;;;;;;5060957;28;20242;-70
2022/06/27 12:50:30;;;;;;;3.05;2.95;;;;;;;;;;5056428;28;20209;-70
2022/06/27 12:53:17;;;;;;;3.00;2.90;;;;;;;;;;5058945;28;20686;-70
2022/06/27 12:56:05;;;;;;;2.80;2.70;;;;;;;;;;5067916;28;20340;-70
2022/06/27 12:58:54;;;;;;;3.05;2.95;;;;;;;;;;5067728;28;20227;-70
2022/06/27 13:01:41;;;;;;;2.90;2.80;;;;;;;;;;5060395;28;20250;-70
2022/06/27 13:04:28;;;;;;;2.80;2.70;;;;;;;;;;5057473;28;20227;-71
2022/06/27 13:07:15;;;;;;;3.28;3.10;;;;;;;;;;5060494;28;20262;-70
2022/06/27 13:10:04;;;;;;;2.97;2.88;;;;;;;;;;5066510;28;20623;-71
2022/06/27 13:12:51;;;;;;;3.10;3.00;;;;;;;;;;5061983;28;20682;-71
2022/06/27 13:15:40;;;;;;;2.90;2.80;;;;;;;;;;5060052;28;20277;-70
2022/06/27 13:18:27;;;;;;;3.40;3.20;;;;;;;;;;5059709;28;20218;-70
2022/06/27 13:21:14;;;;;;;3.40;3.30;;;;;;;;;;5062617;28;20257;-70
2022/06/27 13:24:01;;;;;;;3.40;3.30;;;;;;;;;;5061978;28;20208;-70
2022/06/27 13:26:48;;;;;;;3.20;3.10;;;;;;;;;;5062371;28;20285;-70
2022/06/27 13:29:35;;;;;;;3.42;3.33;;;;;;;;;;5063833;28;20210;-70
2022/06/27 13:32:24;;;;;;;3.13;3.03;;;;;;;;;;5064827;28;20196;-69
2022/06/27 13:35:11;;;;;;;3.10;3.00;;;;;;;;;;5064455;28;20204;-69
2022/06/27 13:38:00;;;;;;;3.13;3.03;;;;;;;;;;5056026;28;20214;-70
2022/06/27 13:40:47;;;;;;;3.58;3.38;;;;;;;;;;5061141;28;20214;-71
2022/06/27 13:43:34;;;;;;;3.10;3.00;;;;;;;;;;5060616;28;20282;-70
2022/06/27 13:46:21;;;;;;;3.47;3.38;;;;;;;;;;5064367;28;20211;-70
2022/06/27 13:49:09;;;;;;;3.20;3.10;;;;;;;;;;5059324;28;20207;-70
2022/06/27 13:51:57;;;;;;;3.00;2.90;;;;;;;;;;5058873;28;20365;-71
2022/06/27 13:54:44;;;;;;;3.13;3.03;;;;;;;;;;5064047;28;20557;-70
2022/06/27 13:57:31;;;;;;;3.30;3.20;;;;;;;;;;5061956;28;20222;-70
2022/06/27 14:00:19;;;;;;;3.38;3.20;;;;;;;;;;5062054;28;20261;-70
2022/06/27 14:03:06;;;;;;;3.50;3.40;;;;;;;;;;5059984;28;20313;-70
2022/06/27 14:07:35;;;;;;;3.10;3.00;;;;;;;;;;5060522;28;20199;-71
2022/06/27 14:09:01;;;;;;;3.00;2.90;;;;;;;;;;5058120;28;20670;-70
2022/06/27 14:11:48;;;;;;;3.30;3.20;;;;;;;;;;5060672;28;20743;-70
2022/06/27 14:14:35;;;;;;;3.22;3.13;;;;;;;;;;5063311;28;20785;-70
2022/06/27 14:17:22;;;;;;;3.45;3.17;;;;;;;;;;5060712;28;20294;-72
2022/06/27 14:20:13;;;;;;;3.28;3.17;;;;;;;;;;5060164;28;20214;-70
2022/06/27 14:23:01;;;;;;;3.05;2.95;;;;;;;;;;5060877;28;20952;-71
2022/06/27 14:25:49;;;;;;;3.45;3.35;;;;;;;;;;5058417;28;20211;-70
2022/06/27 14:28:36;;;;;;;3.25;3.15;;;;;;;;;;5060125;28;20222;-70
2022/06/27 14:31:23;;;;;;;3.28;3.13;;;;;;;;;;5058670;28;20283;-70
2022/06/27 14:34:10;;;;;;;3.20;3.10;;;;;;;;;;5059100;28;20261;-70
2022/06/27 14:36:57;;;;;;;3.17;3.08;;;;;;;;;;5055882;28;20230;-70
2022/06/27 14:39:45;;;;;;;3.13;3.03;;;;;;;;;;5057717;28;20211;-70
2022/06/27 14:42:33;;;;;;;3.08;2.97;;;;;;;;;;5062346;28;20230;-70
2022/06/27 14:45:20;;;;;;;3.33;3.13;;;;;;;;;;5053923;28;20208;-70
2022/06/27 14:48:07;;;;;;;3.30;3.20;;;;;;;;;;5054296;28;20278;-71
2022/06/27 14:50:54;;;;;;;3.50;3.30;;;;;;;;;;5058778;28;20293;-70
2022/06/27 14:53:41;;;;;;;3.30;3.20;;;;;;;;;;5058298;28;20211;-71
2022/06/27 14:56:29;;;;;;;3.60;3.40;;;;;;;;;;5054585;28;20663;-71
2022/06/27 14:59:17;;;;;;;3.13;3.03;;;;;;;;;;5057891;28;20196;-71
2022/06/27 15:02:04;;;;;;;3.78;3.58;;;;;;;;;;5061960;28;20238;-70
2022/06/27 15:04:53;;;;;;;3.20;3.10;;;;;;;;;;5062766;28;20203;-71
2022/06/27 15:07:40;;;;;;;3.28;3.08;;;;;;;;;;5064034;28;20231;-70
2022/06/27 15:10:27;;;;;;;3.25;3.05;;;;;;;;;;5059475;28;20214;-70
2022/06/27 15:13:15;;;;;;;3.47;3.25;;;;;;;;;;5057779;28;20222;-70
2022/06/27 15:16:02;;;;;;;2.95;2.85;;;;;;;;;;5056458;28;20239;-70
2022/06/27 15:18:49;;;;;;;3.42;3.33;;;;;;;;;;5060190;28;20691;-70
2022/06/27 15:21:36;;;;;;;3.30;3.10;;;;;;;;;;5053833;28;20683;-71
2022/06/27 15:24:27;;;;;;;3.03;2.92;;;;;;;;;;5063414;28;20221;-70
2022/06/27 15:27:14;;;;;;;3.40;3.30;;;;;;;;;;5064312;28;20198;-70
2022/06/27 15:30:02;;;;;;;2.85;2.75;;;;;;;;;;5056121;28;20569;-70
2022/06/27 15:32:49;;;;;;;3.40;3.20;;;;;;;;;;5059918;28;20207;-70
2022/06/27 15:35:36;;;;;;;7.32;3.45;;;;;;;;;;5057750;28;20234;-71
2022/06/27 15:38:23;;;;;;;3.22;3.13;;;;;;;;;;5056262;28;20287;-71
2022/06/27 15:41:10;;;;;;;3.20;3.10;;;;;;;;;;5058650;28;20294;-71
2022/06/27 15:43:57;;;;;;;3.28;3.10;;;;;;;;;;5056475;28;20284;-70
2022/06/27 15:46:46;;;;;;;3.50;3.30;;;;;;;;;;5054606;28;20204;-71
2022/06/27 15:49:33;;;;;;;3.13;3.03;;;;;;;;;;5064348;28;20207;-70
2022/06/27 15:52:20;;;;;;;3.25;3.15;;;;;;;;;;5058692;28;20204;-70
2022/06/27 15:55:08;;;;;;;3.25;3.05;;;;;;;;;;5063115;28;20682;-70
2022/06/27 15:57:59;;;;;;;3.40;3.20;;;;;;;;;;5059209;28;20207;-70
2022/06/27 16:00:46;;;;;;;3.60;3.40;;;;;;;;;;5056301;28;20290;-70
2022/06/27 16:03:35;;;;;;;4.00;3.80;;;;;;;;;;5058710;28;20640;-69
2022/06/27 16:06:22;;;;;;;3.80;3.60;;;;;;;;;;5059165;28;20283;-70
2022/06/27 16:09:09;;;;;;;3.55;3.38;;;;;;;;;;5057974;28;20257;-70
2022/06/27 16:11:56;;;;;;;3.60;3.30;;;;;;;;;;5060592;28;20225;-70
2022/06/27 16:14:43;;;;;;;3.22;3.13;;;;;;;;;;5067526;28;20196;-71
2022/06/27 16:17:30;;;;;;;2.97;2.88;;;;;;;;;;5058810;28;20346;-71
2022/06/27 16:20:18;;;;;;;3.03;2.92;;;;;;;;;;5063109;28;20214;-70
2022/06/27 16:23:07;;;;;;;3.42;3.33;;;;;;;;;;5061417;28;20223;-70
2022/06/27 16:25:54;;;;;;;3.35;3.25;;;;;;;;;;5068252;28;20207;-71
2022/06/27 16:28:41;;;;;;;3.20;3.10;;;;;;;;;;5065757;28;20618;-70
2022/06/27 16:31:40;;;;;;;3.47;3.25;;;;;;;;;;5063991;28;20266;-70
2022/06/27 16:34:27;;;;;;;3.85;3.55;;;;;;;;;;5058472;28;21090;-70
2022/06/27 16:37:16;;;;;;;3.28;3.17;;;;;;;;;;5060423;28;20216;-71
2022/06/27 16:40:03;;;;;;;3.38;3.28;;;;;;;;;;5058969;28;20204;-71
2022/06/27 16:45:56;;;;;;;3.55;3.28;;;;;;;;;;5061724;28;20211;-71
2022/06/27 16:48:43;;;;;;;3.08;2.97;;;;;;;;;;5060204;28;20208;-71
2022/06/27 16:51:30;;;;;;;3.15;3.05;;;;;;;;;;5061273;28;20206;-69
2022/06/27 16:54:19;;;;;;;3.58;3.47;;;;;;;;;;5066964;28;20211;-71
2022/06/27 16:57:06;;;;;;;3.30;3.20;;;;;;;;;;5063535;28;20212;-70
2022/06/27 16:59:54;;;;;;;3.17;3.08;;;;;;;;;;5062835;28;20280;-71
2022/06/27 17:02:41;;;;;;;3.20;3.10;;;;;;;;;;5061197;28;20224;-70
2022/06/27 17:05:28;;;;;;;3.30;3.20;;;;;;;;;;5056473;28;20664;-71
2022/06/27 17:08:16;;;;;;;3.50;3.40;;;;;;;;;;5057269;28;20384;-70